createdAt,value
2023-02-05T00:01:30.978Z,6.50
2023-02-05T00:03:57.759Z,6.30
2023-02-05T00:06:24.633Z,6.30
2023-02-05T00:08:51.454Z,6.30
2023-02-05T00:11:18.469Z,6.30
2023-02-05T00:13:45.523Z,6.20
2023-02-05T00:16:16.588Z,6.20
2023-02-05T00:18:43.984Z,6.10
2023-02-05T00:21:12.012Z,6.00
2023-02-05T00:23:39.588Z,6.00
2023-02-05T00:26:07.945Z,6.00
2023-02-05T00:28:36.551Z,6.10
2023-02-05T00:31:13.439Z,6.00
2023-02-05T00:33:40.317Z,6.20
2023-02-05T00:36:08.599Z,6.20
2023-02-05T00:38:36.496Z,6.00
2023-02-05T00:41:03.949Z,6.00
2023-02-05T00:43:31.128Z,6.00
2023-02-05T00:45:58.296Z,6.00
2023-02-05T00:48:25.078Z,5.80
2023-02-05T00:50:53.525Z,5.70
2023-02-05T00:53:22.362Z,5.90
2023-02-05T00:55:49.214Z,6.00
2023-02-05T00:58:16.415Z,5.70
2023-02-05T01:00:43.439Z,5.40
2023-02-05T01:03:10.522Z,5.50
2023-02-05T01:05:38.901Z,5.70
2023-02-05T01:08:10.552Z,5.70
2023-02-05T01:10:37.472Z,5.60
2023-02-05T01:13:05.795Z,6.00
2023-02-05T01:15:33.606Z,6.10
2023-02-05T01:18:00.944Z,6.00
2023-02-05T01:20:27.853Z,5.90
2023-02-05T01:22:55.262Z,6.10
2023-02-05T01:25:22.023Z,6.00
2023-02-05T01:27:48.865Z,6.00
2023-02-05T01:30:16.085Z,6.00
2023-02-05T01:32:42.870Z,5.90
2023-02-05T01:35:10.066Z,5.70
2023-02-05T01:37:36.861Z,5.70
2023-02-05T01:40:04.130Z,5.70
2023-02-05T01:42:32.788Z,5.60
2023-02-05T01:45:32.498Z,5.50
2023-02-05T01:48:03.643Z,5.20
2023-02-05T01:50:41.263Z,5.30
2023-02-05T01:53:13.865Z,5.30
2023-02-05T01:55:56.309Z,5.60
2023-02-05T01:58:27.035Z,5.90
2023-02-05T02:00:54.486Z,6.10
2023-02-05T02:03:22.927Z,6.00
2023-02-05T02:05:49.748Z,6.10
2023-02-05T02:08:16.542Z,6.10
2023-02-05T02:10:44.867Z,6.30
2023-02-05T02:13:13.266Z,6.50
2023-02-05T02:15:41.204Z,6.50
2023-02-05T02:18:26.956Z,6.80
2023-02-05T02:21:27.685Z,6.70
2023-02-05T02:24:29.004Z,6.40
2023-02-05T02:27:32.796Z,6.30
2023-02-05T02:30:29.401Z,6.20
2023-02-05T02:33:09.225Z,6.20
2023-02-05T02:35:46.690Z,6.10
2023-02-05T02:38:32.763Z,6.10
2023-02-05T02:41:29.937Z,6.00
2023-02-05T02:44:14.307Z,5.70
2023-02-05T02:46:48.146Z,5.60
2023-02-05T02:49:38.959Z,5.40
2023-02-05T02:52:10.420Z,5.60
2023-02-05T02:54:39.489Z,5.40
2023-02-05T02:57:09.697Z,5.20
2023-02-05T02:59:40.760Z,5.50
2023-02-05T03:02:11.624Z,5.50
2023-02-05T03:04:42.270Z,5.40
2023-02-05T03:07:17.104Z,5.40
2023-02-05T03:10:03.564Z,5.50
2023-02-05T03:12:30.791Z,5.60
2023-02-05T03:14:57.995Z,5.70
2023-02-05T03:17:26.222Z,5.90
2023-02-05T03:20:02.334Z,6.20
2023-02-05T03:22:29.151Z,6.20
2023-02-05T03:24:56.602Z,5.60
2023-02-05T03:27:23.563Z,5.40
2023-02-05T03:29:50.764Z,5.20
2023-02-05T03:32:40.676Z,5.20
2023-02-05T03:35:43.184Z,5.40
2023-02-05T03:38:28.702Z,5.20
2023-02-05T03:41:00.915Z,5.10
2023-02-05T03:44:29.568Z,5.40
2023-02-05T03:47:38.559Z,6.10
2023-02-05T03:50:31.594Z,6.30
2023-02-05T03:53:28.059Z,5.80
2023-02-05T03:56:14.108Z,5.10
2023-02-05T03:58:46.341Z,4.90
2023-02-05T04:01:13.985Z,5.20
2023-02-05T04:03:40.849Z,5.20
2023-02-05T04:06:08.230Z,5.40
2023-02-05T04:08:35.012Z,5.90
2023-02-05T04:11:01.850Z,5.90
2023-02-05T04:13:28.699Z,5.30
2023-02-05T04:15:55.498Z,5.50
2023-02-05T04:18:22.323Z,5.20
2023-02-05T04:20:49.500Z,5.80
2023-02-05T04:23:16.259Z,5.60
2023-02-05T04:25:43.052Z,5.50
2023-02-05T04:28:10.852Z,5.60
2023-02-05T04:30:39.245Z,5.40
2023-02-05T04:33:06.053Z,5.50
2023-02-05T04:35:33.093Z,5.80
2023-02-05T04:38:00.157Z,5.80
2023-02-05T04:40:26.897Z,6.20
2023-02-05T04:42:53.650Z,6.50
2023-02-05T04:45:20.838Z,6.60
2023-02-05T04:47:47.679Z,6.80
2023-02-05T04:50:14.764Z,6.90
2023-02-05T04:52:41.550Z,6.60
2023-02-05T04:55:08.408Z,6.80
2023-02-05T04:57:35.284Z,6.90
2023-02-05T05:00:02.305Z,6.90
2023-02-05T05:02:29.057Z,7.00
2023-02-05T05:04:55.815Z,6.80
2023-02-05T05:07:22.576Z,6.80
2023-02-05T05:09:51.004Z,7.10
2023-02-05T05:12:19.066Z,7.00
2023-02-05T05:14:45.813Z,7.20
2023-02-05T05:17:14.635Z,7.20
2023-02-05T05:19:41.453Z,7.50
2023-02-05T05:22:08.239Z,6.30
2023-02-05T05:24:35.014Z,6.80
2023-02-05T05:27:01.828Z,6.70
2023-02-05T05:29:28.604Z,6.90
2023-02-05T05:31:55.422Z,6.90
2023-02-05T05:34:22.196Z,6.20
2023-02-05T05:36:49.020Z,6.60
2023-02-05T05:39:34.569Z,6.70
2023-02-05T05:42:20.048Z,6.80
2023-02-05T05:44:51.864Z,6.90
2023-02-05T05:47:19.589Z,6.40
2023-02-05T05:49:46.773Z,6.60
2023-02-05T05:52:14.142Z,6.90
2023-02-05T05:54:41.028Z,7.10
2023-02-05T05:57:08.482Z,6.80
2023-02-05T05:59:35.337Z,6.90
2023-02-05T06:02:03.143Z,7.60
2023-02-05T06:04:30.413Z,7.50
2023-02-05T06:06:57.524Z,7.00
2023-02-05T06:09:25.003Z,6.80
2023-02-05T06:11:51.799Z,6.80
2023-02-05T06:14:18.624Z,6.80
2023-02-05T06:16:45.372Z,6.90
2023-02-05T06:19:12.118Z,7.10
2023-02-05T06:21:38.952Z,7.10
2023-02-05T06:24:06.125Z,6.90
2023-02-05T06:26:32.941Z,6.80
2023-02-05T06:29:03.217Z,6.70
2023-02-05T06:31:31.299Z,6.80
2023-02-05T06:33:58.180Z,6.70
2023-02-05T06:36:25.323Z,6.80
2023-02-05T06:38:52.925Z,6.70
2023-02-05T06:41:19.715Z,6.90
2023-02-05T06:43:46.487Z,7.10
2023-02-05T06:46:13.312Z,7.10
2023-02-05T06:48:40.230Z,6.70
2023-02-05T06:51:07.009Z,6.80
2023-02-05T06:53:33.806Z,7.10
2023-02-05T06:56:00.885Z,7.00
2023-02-05T06:58:27.733Z,7.20
2023-02-05T07:00:54.468Z,7.20
2023-02-05T07:03:21.246Z,7.30
2023-02-05T07:05:48.010Z,6.90
2023-02-05T07:08:14.774Z,7.10
2023-02-05T07:10:41.543Z,7.10
2023-02-05T07:13:08.666Z,6.90
2023-02-05T07:15:37.384Z,6.80
2023-02-05T07:18:05.216Z,6.80
2023-02-05T07:20:32.214Z,6.90
2023-02-05T07:23:00.283Z,7.00
2023-02-05T07:25:27.126Z,5.80
2023-02-05T07:27:54.143Z,6.20
2023-02-05T07:30:21.092Z,6.80
2023-02-05T07:32:47.892Z,7.10
2023-02-05T07:35:14.766Z,6.30
2023-02-05T07:37:41.561Z,5.70
2023-02-05T07:40:09.290Z,5.40
2023-02-05T07:42:36.219Z,5.30
2023-02-05T07:45:03.294Z,5.50
2023-02-05T07:47:30.118Z,6.20
2023-02-05T07:49:56.872Z,6.40
2023-02-05T07:52:23.662Z,5.90
2023-02-05T07:54:50.599Z,5.80
2023-02-05T07:57:17.426Z,6.00
2023-02-05T07:59:44.232Z,6.60
2023-02-05T08:02:12.132Z,6.50
2023-02-05T08:04:39.011Z,5.80
2023-02-05T08:07:06.420Z,5.60
2023-02-05T08:09:33.328Z,5.60
2023-02-05T08:12:00.072Z,5.40
2023-02-05T08:14:26.860Z,4.80
2023-02-05T08:16:53.631Z,4.40
2023-02-05T08:19:20.383Z,4.40
2023-02-05T08:21:47.203Z,4.40
2023-02-05T08:24:13.979Z,4.30
2023-02-05T08:26:40.881Z,3.90
2023-02-05T08:29:08.397Z,4.20
2023-02-05T08:31:36.063Z,4.40
2023-02-05T08:34:03.322Z,4.30
2023-02-05T08:36:30.737Z,4.20
2023-02-05T08:38:57.605Z,4.60
2023-02-05T08:41:24.553Z,5.20
2023-02-05T08:43:51.423Z,5.80
2023-02-05T08:46:22.670Z,5.30
2023-02-05T08:48:49.436Z,5.60
2023-02-05T08:51:17.415Z,5.90
2023-02-05T08:53:44.227Z,6.10
2023-02-05T08:56:13.859Z,6.10
2023-02-05T08:58:41.440Z,6.40
2023-02-05T09:01:13.660Z,6.30
2023-02-05T09:03:40.929Z,6.10
2023-02-05T09:06:12.072Z,6.00
2023-02-05T09:08:39.093Z,5.20
2023-02-05T09:11:06.608Z,5.70
2023-02-05T09:13:33.932Z,5.80
2023-02-05T09:16:01.098Z,5.50
2023-02-05T09:18:27.896Z,5.60
2023-02-05T09:20:54.727Z,5.20
2023-02-05T09:23:21.733Z,5.20
2023-02-05T09:25:48.817Z,5.40
2023-02-05T09:28:15.819Z,5.40
2023-02-05T09:30:45.868Z,5.30
2023-02-05T09:33:13.567Z,5.10
2023-02-05T09:35:41.173Z,4.90
2023-02-05T09:38:08.545Z,5.00
2023-02-05T09:41:05.423Z,4.90
2023-02-05T09:43:57.651Z,4.80
2023-02-05T09:46:50.796Z,4.40
2023-02-05T09:49:32.799Z,4.50
2023-02-05T09:52:11.750Z,4.30
2023-02-05T09:54:46.543Z,4.40
2023-02-05T09:57:28.888Z,4.40
2023-02-05T09:59:56.000Z,4.50
2023-02-05T10:02:49.916Z,4.40
2023-02-05T10:05:18.310Z,4.20
2023-02-05T10:08:28.412Z,4.80
2023-02-05T10:10:57.338Z,4.80
2023-02-05T10:13:39.829Z,4.30
2023-02-05T10:16:06.626Z,4.70
2023-02-05T10:18:39.524Z,5.00
2023-02-05T10:21:40.336Z,5.50
2023-02-05T10:24:38.806Z,5.60
2023-02-05T10:27:27.717Z,5.50
2023-02-05T10:30:18.366Z,5.00
2023-02-05T10:33:00.550Z,4.70
2023-02-05T10:36:12.215Z,4.90
2023-02-05T10:38:45.158Z,5.40
2023-02-05T10:41:44.661Z,5.60
2023-02-05T10:44:23.503Z,5.30
2023-02-05T10:46:55.321Z,6.00
2023-02-05T10:49:31.966Z,6.20
2023-02-05T10:51:58.782Z,6.20
2023-02-05T10:54:33.770Z,5.40
2023-02-05T10:57:01.666Z,6.00
2023-02-05T10:59:35.766Z,5.30
2023-02-05T11:02:09.056Z,5.00
2023-02-05T11:04:48.282Z,5.20
2023-02-05T11:07:33.294Z,5.10
2023-02-05T11:10:27.541Z,5.40
2023-02-05T11:13:21.594Z,5.60
2023-02-05T11:16:11.097Z,5.30
2023-02-05T11:18:47.171Z,5.20
2023-02-05T11:21:14.063Z,5.40
2023-02-05T11:23:56.367Z,5.90
2023-02-05T11:26:26.222Z,5.80
2023-02-05T11:28:53.101Z,5.90
2023-02-05T11:31:30.603Z,6.00
2023-02-05T11:34:16.051Z,6.20
2023-02-05T11:36:55.880Z,6.40
2023-02-05T11:39:35.853Z,6.10
2023-02-05T11:42:23.203Z,5.60
2023-02-05T11:44:58.746Z,5.70
2023-02-05T11:47:33.926Z,5.70
2023-02-05T11:50:02.641Z,6.10
2023-02-05T11:52:35.188Z,6.00
2023-02-05T11:55:02.130Z,5.90
2023-02-05T11:57:39.220Z,6.00
2023-02-05T12:00:08.705Z,6.00
2023-02-05T12:02:41.017Z,5.50
2023-02-05T12:05:13.735Z,5.90
2023-02-05T12:08:03.048Z,6.10
2023-02-05T12:10:33.164Z,5.60
2023-02-05T12:13:08.909Z,5.40
2023-02-05T12:15:55.756Z,5.60
2023-02-05T12:18:56.993Z,5.50
2023-02-05T12:21:51.446Z,6.10
2023-02-05T12:24:58.536Z,6.10
2023-02-05T12:28:11.337Z,5.40
2023-02-05T12:31:07.276Z,5.40
2023-02-05T12:34:29.300Z,5.60
2023-02-05T12:37:21.313Z,5.70
2023-02-05T12:40:01.312Z,5.90
2023-02-05T12:42:54.639Z,5.90
2023-02-05T12:45:39.877Z,5.50
2023-02-05T12:49:06.858Z,5.60
2023-02-05T12:52:00.774Z,6.00
2023-02-05T12:54:54.679Z,5.50
2023-02-05T12:57:39.980Z,5.50
2023-02-05T13:00:16.324Z,5.50
2023-02-05T13:03:17.245Z,6.40
2023-02-05T13:05:59.096Z,6.30
2023-02-05T13:08:57.361Z,5.90
2023-02-05T13:11:47.484Z,5.40
2023-02-05T13:14:26.116Z,5.60
2023-02-05T13:17:18.146Z,5.30
2023-02-05T13:19:54.560Z,5.60
2023-02-05T13:22:46.110Z,5.70
2023-02-05T13:25:37.989Z,5.50
2023-02-05T13:28:42.635Z,5.40
2023-02-05T13:31:25.516Z,5.70
2023-02-05T13:33:55.753Z,5.80
2023-02-05T13:36:27.060Z,5.60
2023-02-05T13:39:35.228Z,6.20
2023-02-05T13:42:34.214Z,7.00
2023-02-05T13:45:23.647Z,6.90
2023-02-05T13:48:20.850Z,5.80
2023-02-05T13:51:12.055Z,6.00
2023-02-05T13:54:11.209Z,5.90
2023-02-05T13:57:21.261Z,6.10
2023-02-05T13:59:53.043Z,6.20
2023-02-05T14:02:38.636Z,6.30
2023-02-05T14:05:06.522Z,6.10
2023-02-05T14:07:43.552Z,7.00
2023-02-05T14:10:37.663Z,6.30
2023-02-05T14:13:24.508Z,7.10
2023-02-05T14:15:54.036Z,6.30
2023-02-05T14:18:39.919Z,5.90
2023-02-05T14:21:31.331Z,5.70
2023-02-05T14:23:58.980Z,5.60
2023-02-05T14:26:51.530Z,5.60
2023-02-05T14:29:44.242Z,6.20
2023-02-05T14:32:13.502Z,5.80
2023-02-05T14:34:40.177Z,5.60
2023-02-05T14:37:31.762Z,5.90
2023-02-05T14:39:59.483Z,6.80
2023-02-05T14:42:30.035Z,6.10
2023-02-05T14:45:00.343Z,6.00
2023-02-05T14:47:32.949Z,6.00
2023-02-05T14:50:10.026Z,6.00
2023-02-05T14:52:48.488Z,6.10
2023-02-05T14:55:15.124Z,6.50
2023-02-05T14:57:50.990Z,6.10
2023-02-05T15:00:29.887Z,6.00
2023-02-05T15:03:06.067Z,6.70
2023-02-05T15:05:45.585Z,6.20
2023-02-05T15:08:36.300Z,6.50
2023-02-05T15:11:13.382Z,6.70
2023-02-05T15:13:40.713Z,6.70
2023-02-05T15:16:16.430Z,6.60
2023-02-05T15:18:59.999Z,7.00
2023-02-05T15:21:33.798Z,7.10
2023-02-05T15:24:06.045Z,7.40
2023-02-05T15:26:47.059Z,7.50
2023-02-05T15:29:22.742Z,7.40
2023-02-05T15:32:00.542Z,7.70
2023-02-05T15:34:53.172Z,7.40
2023-02-05T15:37:57.135Z,7.70
2023-02-05T15:40:33.588Z,8.00
2023-02-05T15:43:16.364Z,7.60
2023-02-05T15:45:46.230Z,7.80
2023-02-05T15:48:17.895Z,7.70
2023-02-05T15:50:51.499Z,9.00
2023-02-05T15:53:38.226Z,9.20
2023-02-05T15:56:35.440Z,9.60
2023-02-05T15:59:16.450Z,9.40
2023-02-05T16:02:20.392Z,9.60
2023-02-05T16:04:58.823Z,9.00
2023-02-05T16:07:37.018Z,9.00
2023-02-05T16:10:21.989Z,8.80
2023-02-05T16:13:06.217Z,8.70
2023-02-05T16:15:47.922Z,8.40
2023-02-05T16:18:27.866Z,8.50
2023-02-05T16:21:02.189Z,8.30
2023-02-05T16:23:39.069Z,7.90
2023-02-05T16:26:38.586Z,7.30
2023-02-05T16:29:20.159Z,7.60
2023-02-05T16:31:59.600Z,6.90
2023-02-05T16:34:27.291Z,6.70
2023-02-05T16:36:58.127Z,6.70
2023-02-05T16:39:38.679Z,6.80
2023-02-05T16:42:26.179Z,6.70
2023-02-05T16:45:08.181Z,6.30
2023-02-05T16:47:38.479Z,6.50
2023-02-05T16:50:36.176Z,6.40
2023-02-05T16:53:03.847Z,6.50
2023-02-05T16:55:31.350Z,6.40
2023-02-05T16:58:05.172Z,6.50
2023-02-05T17:00:33.885Z,7.00
2023-02-05T17:03:18.602Z,7.00
2023-02-05T17:05:57.357Z,7.00
2023-02-05T17:08:32.815Z,6.90
2023-02-05T17:11:03.545Z,7.10
2023-02-05T17:13:40.744Z,7.00
2023-02-05T17:16:39.813Z,7.30
2023-02-05T17:19:25.164Z,7.10
2023-02-05T17:22:13.649Z,7.10
2023-02-05T17:24:45.724Z,7.10
2023-02-05T17:27:21.561Z,6.90
2023-02-05T17:29:48.923Z,7.30
2023-02-05T17:32:19.458Z,6.70
2023-02-05T17:34:46.803Z,6.70
2023-02-05T17:37:14.221Z,6.50
2023-02-05T17:39:41.210Z,6.60
2023-02-05T17:42:22.146Z,6.50
2023-02-05T17:44:49.686Z,6.60
2023-02-05T17:47:16.671Z,6.50
2023-02-05T17:49:43.440Z,6.80
2023-02-05T17:52:10.974Z,6.30
2023-02-05T17:54:38.020Z,6.20
2023-02-05T17:57:19.423Z,6.50
2023-02-05T17:59:47.917Z,6.50
2023-02-05T18:02:15.839Z,6.60
2023-02-05T18:04:44.685Z,7.50
2023-02-05T18:07:30.976Z,9.20
2023-02-05T18:09:59.368Z,7.60
2023-02-05T18:12:26.916Z,7.20
2023-02-05T18:14:54.582Z,7.30
2023-02-05T18:17:22.765Z,7.00
2023-02-05T18:19:49.536Z,6.50
2023-02-05T18:22:16.349Z,6.90
2023-02-05T18:24:43.144Z,6.50
2023-02-05T18:27:11.931Z,6.80
2023-02-05T18:29:40.018Z,6.80
2023-02-05T18:32:07.784Z,6.70
2023-02-05T18:34:34.542Z,6.30
2023-02-05T18:37:01.350Z,6.50
2023-02-05T18:39:29.462Z,6.50
2023-02-05T18:41:57.378Z,6.40
2023-02-05T18:44:25.332Z,6.60
2023-02-05T18:46:52.592Z,6.60
2023-02-05T18:49:19.490Z,7.20
2023-02-05T18:51:46.614Z,6.80
2023-02-05T18:54:13.430Z,7.20
2023-02-05T18:56:40.261Z,6.80
2023-02-05T18:59:09.515Z,6.70
2023-02-05T19:01:38.693Z,6.90
2023-02-05T19:04:14.657Z,6.70
2023-02-05T19:06:43.852Z,6.60
2023-02-05T19:09:11.611Z,6.50
2023-02-05T19:11:41.453Z,6.80
2023-02-05T19:14:12.830Z,7.90
2023-02-05T19:16:41.064Z,8.70
2023-02-05T19:19:08.162Z,7.90
2023-02-05T19:21:36.086Z,7.50
2023-02-05T19:24:09.711Z,7.10
2023-02-05T19:26:39.204Z,6.70
2023-02-05T19:29:10.802Z,6.60
2023-02-05T19:31:38.101Z,6.70
2023-02-05T19:34:06.220Z,6.80
2023-02-05T19:36:33.790Z,6.60
2023-02-05T19:39:04.241Z,6.70
2023-02-05T19:41:33.714Z,7.00
2023-02-05T19:44:06.184Z,7.00
2023-02-05T19:46:38.320Z,6.80
2023-02-05T19:49:14.637Z,8.10
2023-02-05T19:51:44.686Z,8.00
2023-02-05T19:54:11.694Z,7.60
2023-02-05T19:56:38.610Z,7.10
2023-02-05T19:59:09.175Z,7.00
2023-02-05T20:01:38.440Z,6.50
2023-02-05T20:04:11.470Z,7.00
2023-02-05T20:06:39.417Z,6.90
2023-02-05T20:09:10.717Z,7.40
2023-02-05T20:11:42.400Z,7.20
2023-02-05T20:14:10.461Z,7.60
2023-02-05T20:16:40.270Z,7.30
2023-02-05T20:19:10.038Z,7.20
2023-02-05T20:21:37.903Z,7.20
2023-02-05T20:24:07.229Z,6.90
2023-02-05T20:26:35.365Z,6.70
2023-02-05T20:29:20.609Z,6.70
2023-02-05T20:31:51.073Z,6.60
2023-02-05T20:34:22.549Z,6.50
2023-02-05T20:36:56.027Z,6.70
2023-02-05T20:39:26.403Z,6.90
2023-02-05T20:41:53.234Z,7.10
2023-02-05T20:44:20.324Z,6.90
2023-02-05T20:46:47.915Z,6.60
2023-02-05T20:49:14.986Z,6.80
2023-02-05T20:51:43.220Z,7.90
2023-02-05T20:54:11.193Z,8.40
2023-02-05T20:56:38.441Z,8.00
2023-02-05T20:59:07.958Z,7.80
2023-02-05T21:01:37.149Z,8.10
2023-02-05T21:04:06.512Z,7.50
2023-02-05T21:06:38.474Z,7.10
2023-02-05T21:09:06.830Z,7.50
2023-02-05T21:11:33.887Z,7.40
2023-02-05T21:14:00.723Z,7.20
2023-02-05T21:16:28.228Z,7.10
2023-02-05T21:18:55.577Z,6.90
2023-02-05T21:21:26.402Z,7.00
2023-02-05T21:23:59.981Z,6.80
2023-02-05T21:26:37.355Z,6.80
2023-02-05T21:29:10.195Z,6.70
2023-02-05T21:31:45.955Z,6.90
2023-02-05T21:34:21.656Z,6.80
2023-02-05T21:36:48.946Z,6.90
2023-02-05T21:39:16.236Z,6.90
2023-02-05T21:41:45.536Z,6.90
2023-02-05T21:44:12.808Z,7.20
2023-02-05T21:46:39.982Z,7.30
2023-02-05T21:49:06.829Z,7.10
2023-02-05T21:51:35.086Z,7.00
2023-02-05T21:54:04.284Z,7.20
2023-02-05T21:56:34.622Z,7.50
2023-02-05T21:59:01.964Z,7.40
2023-02-05T22:01:32.759Z,7.00
2023-02-05T22:04:08.485Z,7.00
2023-02-05T22:06:36.061Z,6.70
2023-02-05T22:09:05.986Z,6.40
2023-02-05T22:11:33.538Z,6.70
2023-02-05T22:14:00.348Z,6.70
2023-02-05T22:16:33.265Z,6.70
2023-02-05T22:19:01.813Z,6.80
2023-02-05T22:21:45.619Z,7.00
2023-02-05T22:24:18.047Z,7.10
2023-02-05T22:26:47.047Z,7.30
2023-02-05T22:29:17.588Z,6.90
2023-02-05T22:31:46.374Z,6.40
2023-02-05T22:34:13.262Z,6.60
2023-02-05T22:36:40.043Z,6.60
2023-02-05T22:39:07.453Z,6.80
2023-02-05T22:41:40.747Z,7.00
2023-02-05T22:44:10.444Z,7.00
2023-02-05T22:46:43.944Z,6.80
2023-02-05T22:49:15.133Z,6.20
2023-02-05T22:51:42.564Z,6.30
2023-02-05T22:54:13.085Z,5.90
2023-02-05T22:56:39.833Z,5.90
2023-02-05T22:59:07.076Z,6.20
2023-02-05T23:01:36.126Z,6.00
2023-02-05T23:04:05.116Z,5.80
2023-02-05T23:06:38.767Z,6.10
2023-02-05T23:09:16.908Z,6.30
2023-02-05T23:11:45.111Z,6.30
2023-02-05T23:14:14.861Z,6.90
2023-02-05T23:16:46.085Z,6.90
2023-02-05T23:19:22.601Z,6.70
2023-02-05T23:21:49.728Z,7.80
2023-02-05T23:24:17.860Z,7.20
2023-02-05T23:26:48.565Z,7.10
2023-02-05T23:29:16.765Z,7.40
2023-02-05T23:31:44.283Z,7.70
2023-02-05T23:34:12.324Z,7.60
2023-02-05T23:36:39.253Z,7.30
2023-02-05T23:39:06.075Z,7.30
2023-02-05T23:41:35.982Z,6.50
2023-02-05T23:44:08.303Z,6.50
2023-02-05T23:46:36.705Z,6.90
2023-02-05T23:49:04.934Z,7.30
2023-02-05T23:51:32.536Z,7.20
2023-02-05T23:53:59.700Z,7.20
2023-02-05T23:56:26.698Z,7.10
2023-02-05T23:58:53.539Z,6.60
